map of FPO home
FPO - Airport
Location
City:  Freeport, City of Freeport, Bahamas
Name:Grand Bahamas International Airport
ICAO:MYGF
IATA:FPO

Details
Type:Airport (Aerodrome, Airfield)
Use:Private, International (customs port of entry)
Latitude:2633'31"N (26.558686)
Longitude:7841'44"W (-78.695552)
Datum:WGS 1984
Elevation:6 ft (2 m)
Variation:7.71W (WMM2015 magnetic declination)
-0.09 annual change
Runways:1
Longest:11018 × 150 ft (3358 × 45.5 m), paved

Time
Time Zone:UTC-5 (DST-4)
Local Time:

Weather
METAR:MYGF 202300Z 09011KT 9999 FEW020 27/21 A3002

Related Locations
Nearby:
Farthest:USL: 11696 mi / 18824 km
Useless Loop, WA, AU

Find:

   beyond  
but within

Other Information
Maps:
NOTAMs:
Links:
Sources:

  
flag of Bahamas   

Sectional Chart

Flight Planning
at skyvector.com

Satellite Image

Google Maps Satellite view

 

Copyright © 2004-2017 Karl L. Swartz. All rights reserved.
The Great Circle Mapper name and logo are trademarks of the Great Circle Mapper.
All other trademarks mentioned herein belong to their respective owners.
Please see credits for attibutions and further copyright information.

  Follow gcmap on Facebook Follow gcmap on Twitter Follow gcmap on Google+ GCmap on LinkedIn

hCard Microformat

Geo Microformat